Terminal Aerodrome Forecast
Issued by NWS

Home | Current Version | Previous Version | Text Only | Print | Product List | Glossary On
Versions: 1 2 3 4 5 6 7 8 9 10 11 12 13 14 15 16 17
000
FTUS44 KMAF 201100
TAFFST
TAF
KFST 201130Z 2012/2112 15010KT P6SM SCT030 OVC120
      TEMPO 2012/2015 4SM BR BKN007
     FM201500 16010KT P6SM BKN030
      TEMPO 2018/2022 5SM TSRA BR BKN030CB
     FM202200 15010KT P6SM BKN050
      TEMPO 2022/2101 5SM TSRA BR BKN030CB=

USA.gov is the U.S. government's official web portal to all federal, state and local government web resources and services.